Time;durP1;ratioP1;P1;durP2;ratioP2;P2;SDS_P1;SDS_P2;PMS_P1;PMS_P2;Temp;Humidity;BMP_temperature;BMP_pressure;BME280_temperature;BME280_humidity;BME280_pressure;Samples;Min_cycle;Max_cycle;Signal;HPM_P1;HPM_P2
2023/04/26 00:01:34;;;;;;;8.48;2.33;;;4.00;99.90;;;;;;5032780;28;20099;-69
2023/04/26 00:04:07;;;;;;;4.40;2.08;;;4.00;99.90;;;;;;5037045;28;20032;-69
2023/04/26 00:06:36;;;;;;;4.85;2.25;;;4.00;99.90;;;;;;5041436;28;20037;-69
2023/04/26 00:09:04;;;;;;;7.25;2.33;;;4.00;99.90;;;;;;5049391;28;20060;-69
2023/04/26 00:11:33;;;;;;;9.82;2.47;;;3.90;99.90;;;;;;5047076;28;20441;-68
2023/04/26 00:14:01;;;;;;;6.53;2.47;;;3.90;99.90;;;;;;5046287;28;21341;-69
2023/04/26 00:16:27;;;;;;;6.93;2.40;;;3.90;99.90;;;;;;5037451;28;20040;-69
2023/04/26 00:18:53;;;;;;;5.72;1.98;;;3.80;99.90;;;;;;5027566;28;20029;-68
2023/04/26 00:21:21;;;;;;;7.10;2.10;;;3.80;99.90;;;;;;5028417;28;20109;-69
2023/04/26 00:23:47;;;;;;;10.27;3.08;;;3.80;99.90;;;;;;5045537;28;20025;-69
2023/04/26 00:26:15;;;;;;;5.50;2.58;;;3.80;99.90;;;;;;5035216;28;20104;-69
2023/04/26 00:28:41;;;;;;;7.22;2.63;;;3.70;99.90;;;;;;5045373;28;20021;-68
2023/04/26 00:31:06;;;;;;;7.13;2.47;;;3.70;99.90;;;;;;5028927;28;20032;-68
2023/04/26 00:33:32;;;;;;;6.53;2.17;;;3.70;99.90;;;;;;5056378;28;20028;-70
2023/04/26 00:36:00;;;;;;;7.30;2.17;;;3.70;99.90;;;;;;5045944;28;20048;-68
2023/04/26 00:38:26;;;;;;;7.93;2.30;;;3.70;99.90;;;;;;5046258;28;20037;-68
2023/04/26 00:40:51;;;;;;;7.22;3.03;;;3.60;99.90;;;;;;5045746;28;20477;-68
2023/04/26 00:43:17;;;;;;;8.98;2.05;;;3.60;99.90;;;;;;5046548;28;20488;-69
2023/04/26 00:45:43;;;;;;;7.00;2.30;;;3.60;99.90;;;;;;5045317;28;20036;-68
2023/04/26 00:48:08;;;;;;;12.13;3.35;;;3.60;99.90;;;;;;5029313;28;20025;-69
2023/04/26 00:50:34;;;;;;;8.40;2.50;;;3.50;99.90;;;;;;5044791;28;20472;-69
2023/04/26 00:53:01;;;;;;;9.27;2.15;;;3.50;99.90;;;;;;5045609;28;20059;-69
2023/04/26 00:55:27;;;;;;;9.20;3.10;;;3.50;99.90;;;;;;5046070;28;20407;-69
2023/04/26 00:57:56;;;;;;;9.85;2.58;;;3.50;99.90;;;;;;5024440;28;20030;-69
2023/04/26 01:00:22;;;;;;;6.88;2.35;;;3.50;99.90;;;;;;5044266;28;20095;-68
2023/04/26 01:02:47;;;;;;;5.95;2.42;;;3.50;99.90;;;;;;5027552;28;20502;-69
2023/04/26 01:05:13;;;;;;;6.13;2.13;;;3.50;99.90;;;;;;5049385;28;20041;-70
2023/04/26 01:07:39;;;;;;;7.28;2.10;;;3.50;99.90;;;;;;5031835;28;20055;-68
2023/04/26 01:10:08;;;;;;;6.75;2.47;;;3.40;99.90;;;;;;5031005;28;20052;-68
2023/04/26 01:12:35;;;;;;;6.97;2.50;;;3.40;99.90;;;;;;5024247;28;20048;-69
2023/04/26 01:15:02;;;;;;;7.07;2.47;;;3.40;99.90;;;;;;5031814;28;20104;-68
2023/04/26 01:17:33;;;;;;;7.78;2.13;;;3.40;99.90;;;;;;5031671;28;20037;-69
2023/04/26 01:19:59;;;;;;;5.28;2.40;;;3.40;99.90;;;;;;5048844;28;21054;-68
2023/04/26 01:22:25;;;;;;;8.23;3.13;;;3.50;99.90;;;;;;5032348;28;20055;-68
2023/04/26 01:24:58;;;;;;;5.20;2.38;;;3.40;99.90;;;;;;5049129;28;20036;-69
2023/04/26 01:27:24;;;;;;;6.30;2.55;;;3.40;99.90;;;;;;5031888;28;20033;-68
2023/04/26 01:29:49;;;;;;;8.73;2.67;;;3.40;99.90;;;;;;5048727;28;20040;-68
2023/04/26 01:32:15;;;;;;;6.70;3.05;;;3.40;99.90;;;;;;5054838;28;20029;-68
2023/04/26 01:34:40;;;;;;;8.65;3.15;;;3.40;99.90;;;;;;5048617;28;20033;-70
2023/04/26 01:37:06;;;;;;;6.03;2.45;;;3.40;99.90;;;;;;5050075;28;20377;-68
2023/04/26 01:39:33;;;;;;;6.50;3.30;;;3.30;99.90;;;;;;5049056;28;20080;-69
2023/04/26 01:41:58;;;;;;;10.90;3.55;;;3.30;99.90;;;;;;5048669;28;20032;-68
2023/04/26 01:44:24;;;;;;;5.15;2.63;;;3.30;99.90;;;;;;5048425;28;20033;-68
2023/04/26 01:46:59;;;;;;;7.28;3.03;;;3.20;99.90;;;;;;5048577;28;20484;-68
2023/04/26 01:49:27;;;;;;;7.60;3.50;;;3.20;99.90;;;;;;5048739;28;20044;-68
2023/04/26 01:51:54;;;;;;;8.70;3.28;;;3.10;99.90;;;;;;5048112;28;20051;-69
2023/04/26 01:54:20;;;;;;;5.63;2.85;;;3.10;99.90;;;;;;5035329;28;20445;-69
2023/04/26 01:56:45;;;;;;;6.88;2.92;;;3.10;99.90;;;;;;5051635;28;20116;-70
2023/04/26 01:59:14;;;;;;;8.40;2.92;;;3.10;99.90;;;;;;5027640;28;20057;-69
2023/04/26 02:01:43;;;;;;;11.98;3.53;;;3.10;99.90;;;;;;5040883;28;20037;-70
2023/04/26 02:04:09;;;;;;;8.65;3.25;;;3.10;99.90;;;;;;5045212;28;20029;-69
2023/04/26 02:06:35;;;;;;;8.15;2.83;;;3.10;99.90;;;;;;5047495;28;20029;-68
2023/04/26 02:09:01;;;;;;;14.00;3.60;;;3.00;99.90;;;;;;5047340;28;20091;-68
2023/04/26 02:11:26;;;;;;;9.07;3.47;;;3.00;99.90;;;;;;5047676;28;20040;-68
2023/04/26 02:13:52;;;;;;;11.32;3.10;;;3.00;99.90;;;;;;5029445;28;20129;-67
2023/04/26 02:16:18;;;;;;;10.75;2.63;;;3.00;99.90;;;;;;5046564;28;20036;-68
2023/04/26 02:18:44;;;;;;;5.45;2.63;;;3.00;99.90;;;;;;5045285;28;20025;-67
2023/04/26 02:21:10;;;;;;;11.63;2.83;;;2.90;99.90;;;;;;5029511;28;20112;-68
2023/04/26 02:23:36;;;;;;;6.28;2.85;;;2.90;99.90;;;;;;5047886;28;20032;-68
2023/04/26 02:26:02;;;;;;;7.70;3.45;;;2.90;99.90;;;;;;5046321;28;20370;-69
2023/04/26 02:28:27;;;;;;;7.28;2.70;;;2.90;99.90;;;;;;5048271;28;20029;-68
2023/04/26 02:30:55;;;;;;;9.00;3.40;;;2.80;99.90;;;;;;5043340;28;20085;-69
2023/04/26 02:33:21;;;;;;;6.20;2.67;;;2.80;99.90;;;;;;5033984;28;20091;-69
2023/04/26 02:35:53;;;;;;;6.25;2.42;;;2.80;99.90;;;;;;5031270;28;20349;-69
2023/04/26 02:38:25;;;;;;;10.30;3.08;;;2.80;99.90;;;;;;5047484;28;20676;-71
2023/04/26 02:40:58;;;;;;;6.95;2.53;;;2.70;99.90;;;;;;5029404;28;20055;-68
2023/04/26 02:43:32;;;;;;;13.98;2.90;;;2.70;99.90;;;;;;5032232;28;20064;-68
2023/04/26 02:45:59;;;;;;;7.18;2.42;;;2.70;99.90;;;;;;5024989;28;20483;-68
2023/04/26 02:48:28;;;;;;;8.43;3.63;;;2.70;99.90;;;;;;5028434;28;20041;-69
2023/04/26 02:51:00;;;;;;;8.30;3.42;;;2.70;99.90;;;;;;5047380;28;20103;-68
2023/04/26 02:53:25;;;;;;;11.82;2.63;;;2.60;99.90;;;;;;5048716;28;20033;-69
2023/04/26 02:55:51;;;;;;;5.70;2.28;;;2.60;99.90;;;;;;5030644;28;20049;-68
2023/04/26 02:58:17;;;;;;;5.63;2.55;;;2.60;99.90;;;;;;5049271;28;20032;-69
2023/04/26 03:00:46;;;;;;;7.45;2.88;;;2.50;99.90;;;;;;5042498;28;20071;-69
2023/04/26 03:03:12;;;;;;;9.77;3.22;;;2.50;99.90;;;;;;5043043;28;20256;-69
2023/04/26 03:05:38;;;;;;;6.38;2.67;;;2.50;99.90;;;;;;5041351;28;20056;-68
2023/04/26 03:08:06;;;;;;;6.90;2.20;;;2.50;99.90;;;;;;5046958;28;20025;-70
2023/04/26 03:10:32;;;;;;;9.35;2.58;;;2.50;99.90;;;;;;5047533;28;20033;-69
2023/04/26 03:13:02;;;;;;;7.68;2.80;;;2.50;99.90;;;;;;5029495;28;20040;-68
2023/04/26 03:15:28;;;;;;;6.30;2.10;;;2.50;99.90;;;;;;5045765;28;20500;-69
2023/04/26 03:17:57;;;;;;;7.68;2.15;;;2.50;99.90;;;;;;5047322;28;20033;-68
2023/04/26 03:20:26;;;;;;;6.97;2.10;;;2.50;99.90;;;;;;5046888;28;20033;-69
2023/04/26 03:22:51;;;;;;;5.40;2.67;;;2.50;99.90;;;;;;5025713;28;20589;-68
2023/04/26 03:25:17;;;;;;;7.68;2.40;;;2.40;99.90;;;;;;5026950;28;20033;-70
2023/04/26 03:27:42;;;;;;;11.90;2.97;;;2.40;99.90;;;;;;5039192;28;20112;-69
2023/04/26 03:30:08;;;;;;;10.25;3.28;;;2.50;99.90;;;;;;5047241;28;20125;-67
2023/04/26 03:32:34;;;;;;;8.25;3.55;;;2.50;99.90;;;;;;5031265;28;20116;-69
2023/04/26 03:35:09;;;;;;;8.60;2.67;;;2.60;99.90;;;;;;5023865;28;20042;-67
2023/04/26 03:37:34;;;;;;;10.32;3.20;;;2.60;99.90;;;;;;5042664;28;20517;-68
2023/04/26 03:40:00;;;;;;;5.25;2.85;;;2.70;99.90;;;;;;5045292;28;20045;-68
2023/04/26 03:42:25;;;;;;;8.93;2.50;;;2.70;99.90;;;;;;5047255;28;20037;-68
2023/04/26 03:44:51;;;;;;;7.90;2.20;;;2.80;99.90;;;;;;5035465;28;20035;-69
2023/04/26 03:47:17;;;;;;;13.73;3.53;;;2.90;99.90;;;;;;5032730;28;20047;-68
2023/04/26 03:49:42;;;;;;;8.30;3.08;;;2.90;99.90;;;;;;5045804;28;20033;-69
2023/04/26 03:52:11;;;;;;;11.25;2.50;;;2.90;99.90;;;;;;5046820;28;20032;-69
2023/04/26 03:54:36;;;;;;;8.77;2.63;;;2.90;99.90;;;;;;5020283;28;20041;-68
2023/04/26 03:57:02;;;;;;;7.45;2.78;;;2.90;99.90;;;;;;5047286;28;20439;-68
2023/04/26 03:59:28;;;;;;;6.88;2.78;;;2.80;99.90;;;;;;5046725;28;20542;-69
2023/04/26 04:01:54;;;;;;;10.30;3.75;;;2.80;99.90;;;;;;5028864;28;20048;-68
2023/04/26 04:04:19;;;;;;;5.78;2.35;;;2.80;99.90;;;;;;5047409;28;20037;-68
2023/04/26 04:06:45;;;;;;;9.43;3.75;;;2.80;99.90;;;;;;5038343;28;20037;-68
2023/04/26 04:09:10;;;;;;;6.47;3.17;;;2.80;99.90;;;;;;5032342;28;20182;-69
2023/04/26 04:11:36;;;;;;;8.18;2.85;;;2.70;99.90;;;;;;5043965;28;20047;-68
2023/04/26 04:14:01;;;;;;;6.72;2.95;;;2.70;99.90;;;;;;5039610;28;20036;-68
2023/04/26 04:16:30;;;;;;;8.05;2.50;;;2.70;99.90;;;;;;5047185;28;20029;-69
2023/04/26 04:18:55;;;;;;;8.73;2.50;;;2.70;99.90;;;;;;5031285;28;20032;-69
2023/04/26 04:21:21;;;;;;;8.75;2.40;;;2.70;99.90;;;;;;5029040;28;20545;-69
2023/04/26 04:23:49;;;;;;;4.72;2.42;;;2.70;99.90;;;;;;5045000;28;20489;-68
2023/04/26 04:26:16;;;;;;;7.25;2.50;;;2.70;99.90;;;;;;5028947;28;20532;-69
2023/04/26 04:28:41;;;;;;;10.52;2.88;;;2.70;99.90;;;;;;5044677;28;20536;-69
2023/04/26 04:31:08;;;;;;;5.45;2.28;;;2.70;99.90;;;;;;5046964;28;20163;-68
2023/04/26 04:33:34;;;;;;;7.00;2.00;;;2.70;99.90;;;;;;5046237;28;20060;-69
2023/04/26 04:36:00;;;;;;;7.07;2.65;;;2.80;99.90;;;;;;5032199;28;20118;-69
2023/04/26 04:38:25;;;;;;;5.75;2.25;;;2.80;99.90;;;;;;5042028;28;20088;-68
2023/04/26 04:40:51;;;;;;;8.25;3.15;;;2.80;99.90;;;;;;5027801;28;20025;-69
2023/04/26 04:43:20;;;;;;;6.10;2.97;;;2.80;99.90;;;;;;5046278;28;20047;-69
2023/04/26 04:45:48;;;;;;;7.38;2.15;;;2.80;99.90;;;;;;5045513;28;20036;-69
2023/04/26 04:48:13;;;;;;;9.48;2.78;;;2.90;99.90;;;;;;5036236;28;20398;-69
2023/04/26 04:50:40;;;;;;;7.45;2.78;;;3.00;99.90;;;;;;5027200;28;20026;-68
2023/04/26 04:53:07;;;;;;;6.40;2.83;;;3.00;99.90;;;;;;5037042;28;20476;-68
2023/04/26 04:55:33;;;;;;;8.40;2.83;;;3.10;99.90;;;;;;5046468;28;20055;-69
2023/04/26 04:58:02;;;;;;;12.43;3.45;;;3.20;99.90;;;;;;5046084;28;20490;-69
2023/04/26 05:00:31;;;;;;;8.25;2.78;;;3.30;99.90;;;;;;5033052;28;20083;-68
2023/04/26 05:02:57;;;;;;;9.73;2.67;;;3.40;99.90;;;;;;5045937;28;20072;-68
2023/04/26 05:05:22;;;;;;;10.68;2.83;;;3.50;99.90;;;;;;5046818;28;20060;-69
2023/04/26 05:07:48;;;;;;;7.85;2.00;;;3.60;99.90;;;;;;5028748;28;20430;-69
2023/04/26 05:10:14;;;;;;;8.85;3.63;;;3.80;99.90;;;;;;5041362;28;20044;-69
2023/04/26 05:12:39;;;;;;;4.15;2.10;;;3.90;99.90;;;;;;5031862;28;20046;-69
2023/04/26 05:15:11;;;;;;;6.50;2.40;;;4.10;99.90;;;;;;5045932;28;20722;-68
2023/04/26 05:17:36;;;;;;;6.05;1.90;;;4.30;99.90;;;;;;5046146;28;20047;-68
2023/04/26 05:20:05;;;;;;;12.60;2.38;;;4.40;99.90;;;;;;5027479;28;20029;-69
2023/04/26 05:22:40;;;;;;;5.20;1.70;;;4.50;99.90;;;;;;5028689;28;20052;-68
2023/04/26 05:25:09;;;;;;;7.43;1.88;;;4.70;99.90;;;;;;5032612;28;20073;-69
2023/04/26 05:27:38;;;;;;;8.07;2.45;;;4.80;99.90;;;;;;5045997;28;20037;-69
2023/04/26 05:30:05;;;;;;;4.15;1.85;;;4.90;99.90;;;;;;5045421;28;20036;-69
2023/04/26 05:32:33;;;;;;;5.80;2.20;;;5.00;99.90;;;;;;5046491;28;20064;-70
2023/04/26 05:35:02;;;;;;;3.95;1.73;;;5.00;99.90;;;;;;5026933;28;20048;-68
2023/04/26 05:37:27;;;;;;;4.38;1.83;;;5.10;99.90;;;;;;5028327;28;20041;-68
2023/04/26 05:39:53;;;;;;;3.92;1.67;;;5.20;99.90;;;;;;5027256;28;21219;-70
2023/04/26 05:42:19;;;;;;;6.82;1.70;;;5.30;99.90;;;;;;5046206;28;20081;-69
2023/04/26 05:44:44;;;;;;;4.30;2.08;;;5.60;99.90;;;;;;5044267;28;20029;-71
2023/04/26 05:47:10;;;;;;;4.53;1.73;;;5.90;99.90;;;;;;5045577;28;20091;-70
2023/04/26 05:49:35;;;;;;;5.05;1.60;;;6.10;99.90;;;;;;5046293;28;20074;-70
2023/04/26 05:52:02;;;;;;;5.63;1.70;;;6.50;99.90;;;;;;5032151;28;20044;-69
2023/04/26 05:54:31;;;;;;;4.70;1.50;;;6.90;99.90;;;;;;5050153;28;20040;-69
2023/04/26 05:56:59;;;;;;;7.32;1.70;;;7.50;99.90;;;;;;5035610;28;20384;-68
2023/04/26 05:59:31;;;;;;;5.38;1.40;;;8.20;99.90;;;;;;5038920;28;20179;-69
2023/04/26 06:01:57;;;;;;;5.72;1.17;;;8.70;99.90;;;;;;5026994;28;20036;-69
2023/04/26 06:04:23;;;;;;;3.80;1.30;;;8.80;99.90;;;;;;5050536;28;20571;-69
2023/04/26 06:06:48;;;;;;;7.47;1.90;;;8.70;99.90;;;;;;5048819;28;20052;-70
2023/04/26 06:09:14;;;;;;;8.63;1.40;;;8.50;99.90;;;;;;5049965;28;20120;-70
2023/04/26 06:11:40;;;;;;;3.20;1.45;;;8.20;99.90;;;;;;5030716;28;20025;-69
2023/04/26 06:14:05;;;;;;;3.70;0.90;;;8.00;99.90;;;;;;5036710;28;20029;-69
2023/04/26 06:16:34;;;;;;;3.38;1.40;;;7.80;99.90;;;;;;5038601;28;20040;-69
2023/04/26 06:19:00;;;;;;;3.80;1.58;;;7.60;99.90;;;;;;5042117;28;20492;-68
2023/04/26 06:21:26;;;;;;;5.00;1.80;;;7.50;99.90;;;;;;5046424;28;20446;-69
2023/04/26 06:23:51;;;;;;;3.20;1.65;;;7.40;99.90;;;;;;5045509;28;20037;-69
2023/04/26 06:26:17;;;;;;;5.97;1.25;;;7.20;99.90;;;;;;5046131;28;20064;-69
2023/04/26 06:28:42;;;;;;;8.40;1.65;;;7.20;99.90;;;;;;5027588;28;20075;-68
2023/04/26 06:31:08;;;;;;;6.70;1.60;;;7.10;99.90;;;;;;5046141;28;20028;-69
2023/04/26 06:33:33;;;;;;;3.85;1.63;;;7.10;99.90;;;;;;5029366;28;20464;-69
2023/04/26 06:35:59;;;;;;;3.17;1.38;;;7.10;99.90;;;;;;5043711;28;20036;-69
2023/04/26 06:38:25;;;;;;;9.48;1.65;;;7.10;99.90;;;;;;5046079;28;20398;-70
2023/04/26 06:40:50;;;;;;;3.10;1.30;;;7.00;99.90;;;;;;5027608;28;20069;-69
2023/04/26 06:43:16;;;;;;;7.82;1.30;;;7.10;99.90;;;;;;5046732;28;20033;-69
2023/04/26 06:45:41;;;;;;;8.68;1.60;;;7.10;99.90;;;;;;5027942;28;20108;-70
2023/04/26 06:48:07;;;;;;;2.90;1.30;;;7.10;99.90;;;;;;5046192;28;20032;-68
2023/04/26 06:50:36;;;;;;;3.17;1.33;;;7.20;99.90;;;;;;5045834;28;20635;-69
2023/04/26 06:53:01;;;;;;;4.00;1.50;;;7.30;99.90;;;;;;5044940;28;20041;-69
2023/04/26 06:55:27;;;;;;;3.28;1.48;;;7.40;99.90;;;;;;5023821;28;20760;-71
2023/04/26 06:57:52;;;;;;;6.30;1.42;;;7.50;99.90;;;;;;5027080;28;20035;-68
2023/04/26 07:00:18;;;;;;;6.63;1.30;;;7.60;99.90;;;;;;5024275;28;20048;-68
2023/04/26 07:02:44;;;;;;;7.40;2.25;;;7.80;99.90;;;;;;5044197;28;20041;-68
2023/04/26 07:05:10;;;;;;;4.93;1.20;;;7.90;99.90;;;;;;5026774;28;20037;-70
2023/04/26 07:07:35;;;;;;;4.68;1.48;;;8.10;99.90;;;;;;5043522;28;20729;-68
2023/04/26 07:10:01;;;;;;;2.97;1.35;;;8.20;99.90;;;;;;5022677;28;20125;-69
2023/04/26 07:12:27;;;;;;;2.28;1.27;;;8.40;99.90;;;;;;5043942;28;20095;-69
2023/04/26 07:14:52;;;;;;;6.25;1.63;;;8.60;99.90;;;;;;5043439;28;20037;-69
2023/04/26 07:17:18;;;;;;;6.50;1.65;;;8.70;99.90;;;;;;5047549;28;20036;-69
2023/04/26 07:19:44;;;;;;;4.35;1.30;;;8.90;99.90;;;;;;5030177;28;20040;-70
2023/04/26 07:22:09;;;;;;;5.75;1.33;;;9.00;99.90;;;;;;5027921;28;20040;-70
2023/04/26 07:24:35;;;;;;;6.68;2.78;;;9.20;99.90;;;;;;5031135;28;20403;-69
2023/04/26 07:27:04;;;;;;;7.07;1.48;;;9.50;99.90;;;;;;5047715;28;20033;-70
2023/04/26 07:29:29;;;;;;;3.72;1.23;;;9.80;99.90;;;;;;5047222;28;20037;-69
2023/04/26 07:31:58;;;;;;;3.17;1.35;;;10.10;99.90;;;;;;5047464;28;20036;-70
2023/04/26 07:34:33;;;;;;;10.90;3.22;;;10.50;99.90;;;;;;5048595;28;20040;-69
2023/04/26 07:36:58;;;;;;;2.78;1.10;;;10.60;99.90;;;;;;5041528;28;20041;-71
2023/04/26 07:39:24;;;;;;;7.97;1.25;;;10.40;99.90;;;;;;5048087;28;20029;-70
2023/04/26 07:41:49;;;;;;;3.25;0.90;;;10.30;99.90;;;;;;5047055;28;20392;-70
2023/04/26 07:44:18;;;;;;;6.57;1.30;;;10.20;99.90;;;;;;5048221;28;20029;-68
2023/04/26 07:46:43;;;;;;;2.33;1.15;;;10.10;99.90;;;;;;5045070;28;20078;-71
2023/04/26 07:49:09;;;;;;;3.13;0.82;;;10.20;99.90;;;;;;5030107;28;20029;-70
2023/04/26 07:51:38;;;;;;;6.75;0.80;;;10.30;99.90;;;;;;5048326;28;20025;-70
2023/04/26 07:54:04;;;;;;;3.08;0.95;;;10.40;99.90;;;;;;5047049;28;20071;-70
2023/04/26 07:56:30;;;;;;;3.67;0.68;;;10.30;99.90;;;;;;5047547;28;20111;-71
2023/04/26 07:58:55;;;;;;;4.35;1.20;;;10.10;99.90;;;;;;5022507;28;20029;-70
2023/04/26 08:01:21;;;;;;;5.93;0.90;;;9.90;99.90;;;;;;5046402;28;20028;-71
2023/04/26 08:03:47;;;;;;;5.68;1.23;;;9.80;99.90;;;;;;5041639;28;20029;-70
2023/04/26 08:06:13;;;;;;;4.68;0.90;;;9.60;99.90;;;;;;5045693;28;20043;-69
2023/04/26 08:08:44;;;;;;;4.63;1.05;;;9.40;99.90;;;;;;5045097;28;20029;-69
2023/04/26 08:11:10;;;;;;;3.83;0.90;;;9.30;99.90;;;;;;5045118;28;20507;-69
2023/04/26 08:13:36;;;;;;;4.43;0.82;;;9.10;99.90;;;;;;5043242;28;20451;-71
2023/04/26 08:16:01;;;;;;;3.03;0.80;;;8.90;99.90;;;;;;5029642;28;20114;-70
2023/04/26 08:18:33;;;;;;;2.08;0.40;;;8.90;99.90;;;;;;5045216;28;20029;-71
2023/04/26 08:20:58;;;;;;;2.55;0.82;;;8.70;99.90;;;;;;5025864;28;20024;-69
2023/04/26 08:23:27;;;;;;;2.72;0.40;;;8.70;99.90;;;;;;5029136;28;20029;-68
2023/04/26 08:25:59;;;;;;;1.38;0.30;;;8.60;99.90;;;;;;5043970;28;20036;-69
2023/04/26 08:28:25;;;;;;;4.38;0.22;;;8.70;99.90;;;;;;5046002;28;20037;-70
2023/04/26 08:30:53;;;;;;;3.25;0.38;;;8.70;99.90;;;;;;5044037;28;20706;-69
2023/04/26 08:33:18;;;;;;;3.10;0.30;;;8.80;99.90;;;;;;5024148;28;20091;-70
2023/04/26 08:35:44;;;;;;;4.85;0.43;;;9.00;99.90;;;;;;5028658;28;20036;-70
2023/04/26 08:38:10;;;;;;;1.67;0.22;;;9.20;99.90;;;;;;5036024;28;20043;-70
2023/04/26 08:40:36;;;;;;;1.83;0.40;;;9.30;99.90;;;;;;5046033;28;20044;-70
2023/04/26 08:43:01;;;;;;;4.90;0.65;;;9.30;99.90;;;;;;5028002;28;20484;-69
2023/04/26 08:45:27;;;;;;;2.50;0.55;;;9.40;99.90;;;;;;5046027;28;20056;-70
2023/04/26 08:47:59;;;;;;;4.55;0.60;;;9.60;99.90;;;;;;5046398;28;20187;-70
2023/04/26 08:50:30;;;;;;;1.92;0.63;;;9.80;99.90;;;;;;5047150;28;20086;-69
2023/04/26 08:52:56;;;;;;;4.80;0.50;;;10.00;99.90;;;;;;5046169;28;20057;-69
2023/04/26 08:55:22;;;;;;;3.15;1.13;;;10.40;99.90;;;;;;5037483;28;20455;-69
2023/04/26 08:57:49;;;;;;;5.65;1.00;;;10.70;99.90;;;;;;5045884;28;20028;-69
2023/04/26 09:00:22;;;;;;;3.22;0.50;;;10.80;99.90;;;;;;5028782;28;20052;-70
2023/04/26 09:02:50;;;;;;;1.58;0.38;;;10.90;99.90;;;;;;5046010;28;20036;-70
2023/04/26 09:05:15;;;;;;;2.53;0.35;;;10.90;99.90;;;;;;5047296;28;20104;-68
2023/04/26 09:07:45;;;;;;;3.13;1.08;;;11.00;99.90;;;;;;5028859;28;20215;-69
2023/04/26 09:10:19;;;;;;;2.00;0.38;;;11.00;99.90;;;;;;5046946;28;20111;-69
2023/04/26 09:12:50;;;;;;;2.20;0.80;;;11.30;99.90;;;;;;5045753;28;20037;-69
2023/04/26 09:15:16;;;;;;;;;;;11.30;99.90;;;;;;5048015;28;20434;-69
2023/04/26 09:17:43;;;;;;;1.45;0.20;;;11.40;99.90;;;;;;5033384;28;20007;-70
2023/04/26 09:20:28;;;;;;;3.67;0.45;;;11.30;99.10;;;;;;5046349;28;20576;-71
2023/04/26 09:23:07;;;;;;;2.88;0.32;;;11.20;99.40;;;;;;5046555;28;20045;-70
2023/04/26 09:25:34;;;;;;;2.20;0.22;;;11.10;99.90;;;;;;5032069;28;20041;-70
2023/04/26 09:28:02;;;;;;;1.98;0.30;;;10.90;99.50;;;;;;5031784;28;21473;-69
2023/04/26 09:30:36;;;;;;;1.92;0.65;;;10.70;99.80;;;;;;5050740;28;20040;-69
2023/04/26 09:33:03;;;;;;;3.33;0.45;;;10.40;99.90;;;;;;5049294;28;20036;-69
2023/04/26 09:35:36;;;;;;;3.60;0.40;;;10.10;99.90;;;;;;5028619;28;20041;-68
2023/04/26 09:38:08;;;;;;;1.33;0.50;;;9.90;99.90;;;;;;5048680;28;20048;-69
2023/04/26 09:40:48;;;;;;;2.92;0.85;;;9.80;99.90;;;;;;5029416;28;20045;-72
2023/04/26 09:43:21;;;;;;;3.58;0.40;;;9.60;99.90;;;;;;5047350;28;20100;-70
2023/04/26 09:45:49;;;;;;;4.53;1.23;;;9.40;99.90;;;;;;5028619;28;20080;-69
2023/04/26 09:48:33;;;;;;;6.57;1.27;;;9.20;99.90;;;;;;5028341;28;20112;-69
2023/04/26 09:51:11;;;;;;;2.78;0.60;;;9.00;99.90;;;;;;5049386;28;20037;-69
2023/04/26 09:53:46;;;;;;;2.85;0.52;;;9.00;99.90;;;;;;5045032;28;20033;-69
2023/04/26 09:56:20;;;;;;;2.65;1.00;;;8.80;99.90;;;;;;5047532;28;20095;-68
2023/04/26 09:58:46;;;;;;;3.53;1.02;;;8.80;99.90;;;;;;5031149;28;20037;-68
2023/04/26 10:01:13;;;;;;;3.70;0.90;;;8.70;99.90;;;;;;5032177;28;20041;-69
2023/04/26 10:03:40;;;;;;;2.08;0.80;;;8.80;99.90;;;;;;5049722;28;20063;-69
2023/04/26 10:06:06;;;;;;;4.10;0.73;;;8.70;99.90;;;;;;5037517;28;20037;-69
2023/04/26 10:08:32;;;;;;;6.40;1.40;;;8.70;99.90;;;;;;5033065;28;20040;-70
2023/04/26 10:11:03;;;;;;;1.52;0.50;;;8.70;99.90;;;;;;5049233;28;20654;-69
2023/04/26 10:13:31;;;;;;;5.25;0.95;;;8.80;99.90;;;;;;5032098;28;20031;-69
2023/04/26 10:15:58;;;;;;;2.85;0.75;;;8.80;99.90;;;;;;5031086;28;20037;-71
2023/04/26 10:18:33;;;;;;;3.38;0.90;;;8.80;99.90;;;;;;5049664;28;20045;-69
2023/04/26 10:21:34;;;;;;;3.58;0.70;;;8.80;99.90;;;;;;5048653;28;20060;-69
2023/04/26 10:24:00;;;;;;;11.30;2.00;;;8.80;99.90;;;;;;5022185;28;20033;-70
2023/04/26 10:26:55;;;;;;;3.85;0.82;;;8.80;99.90;;;;;;5031542;28;20072;-70
2023/04/26 10:29:22;;;;;;;2.08;0.60;;;8.80;99.90;;;;;;5043511;28;20090;-69
2023/04/26 10:32:03;;;;;;;2.58;0.57;;;9.00;99.90;;;;;;5048473;28;20040;-69
2023/04/26 10:34:30;;;;;;;2.33;0.75;;;9.10;99.90;;;;;;5029697;28;20041;-70
2023/04/26 10:37:09;;;;;;;3.60;1.15;;;9.20;99.90;;;;;;5052669;28;20056;-69
2023/04/26 10:39:35;;;;;;;4.22;0.98;;;9.30;99.90;;;;;;5032246;28;20025;-70
2023/04/26 10:42:24;;;;;;;2.38;0.55;;;9.30;99.90;;;;;;5048210;28;20132;-71
2023/04/26 10:44:51;;;;;;;3.15;0.50;;;9.60;99.90;;;;;;5048023;28;20036;-69
2023/04/26 10:47:27;;;;;;;1.17;0.35;;;9.80;99.90;;;;;;5049202;28;20492;-70
2023/04/26 10:50:00;;;;;;;3.08;0.50;;;9.90;99.90;;;;;;5047927;28;20408;-69
2023/04/26 10:52:26;;;;;;;4.93;1.00;;;10.10;99.90;;;;;;5030206;28;20036;-69
2023/04/26 10:54:59;;;;;;;1.88;0.40;;;10.30;99.90;;;;;;5046391;28;20029;-72
2023/04/26 10:57:46;;;;;;;1.92;0.68;;;10.50;99.90;;;;;;5048728;28;20098;-70
2023/04/26 11:00:25;;;;;;;2.13;0.50;;;10.80;99.90;;;;;;5042469;28;20545;-70
2023/04/26 11:02:51;;;;;;;2.67;0.70;;;10.90;99.90;;;;;;5027261;28;20051;-70
2023/04/26 11:06:01;;;;;;;2.60;0.52;;;10.80;99.90;;;;;;5031931;28;20036;-70
2023/04/26 11:08:29;;;;;;;2.90;0.60;;;10.80;99.90;;;;;;5006068;28;20049;-70
2023/04/26 11:11:01;;;;;;;3.20;0.73;;;11.10;99.90;;;;;;5033284;28;20033;-70
2023/04/26 11:13:30;;;;;;;3.83;0.73;;;11.20;99.90;;;;;;5031293;28;20416;-70
2023/04/26 11:16:10;;;;;;;1.77;0.60;;;11.40;99.90;;;;;;5041549;28;20036;-69
2023/04/26 11:18:38;;;;;;;3.30;0.57;;;11.70;99.90;;;;;;5048133;28;20058;-71
2023/04/26 11:21:07;;;;;;;2.72;0.70;;;11.80;99.90;;;;;;5047268;28;20055;-70
2023/04/26 11:23:34;;;;;;;5.20;1.05;;;12.00;99.90;;;;;;5048202;28;20171;-71
2023/04/26 11:26:04;;;;;;;4.07;0.70;;;12.00;99.90;;;;;;5047608;28;20112;-70
2023/04/26 11:28:30;;;;;;;1.92;0.60;;;12.10;99.30;;;;;;5049177;28;20056;-70
2023/04/26 11:30:56;;;;;;;1.65;0.43;;;12.00;99.70;;;;;;5040484;28;20098;-70
2023/04/26 11:33:22;;;;;;;2.15;0.50;;;11.80;99.00;;;;;;5047457;28;20104;-69
2023/04/26 11:35:57;;;;;;;2.17;0.52;;;11.70;98.80;;;;;;5046209;28;20039;-69
2023/04/26 11:38:32;;;;;;;3.88;0.60;;;11.70;99.40;;;;;;5044754;28;20045;-70
2023/04/26 11:41:07;;;;;;;3.38;0.52;;;11.50;98.30;;;;;;5043570;28;20484;-70
2023/04/26 11:43:41;;;;;;;3.10;0.93;;;11.40;99.40;;;;;;5044311;28;20037;-69
2023/04/26 11:46:08;;;;;;;1.95;0.30;;;11.40;99.20;;;;;;5046906;28;20138;-70
2023/04/26 11:48:36;;;;;;;6.00;0.90;;;11.50;98.90;;;;;;5046222;28;20652;-69
2023/04/26 11:51:03;;;;;;;2.80;0.90;;;11.50;99.20;;;;;;5042980;28;20044;-69
2023/04/26 11:53:36;;;;;;;5.28;0.60;;;11.50;98.80;;;;;;5029358;28;20508;-68
2023/04/26 11:56:25;;;;;;;3.28;0.45;;;11.40;98.60;;;;;;5043540;28;20040;-70
2023/04/26 11:58:52;;;;;;;2.70;0.55;;;11.40;98.80;;;;;;5008093;28;20068;-69
2023/04/26 12:01:25;;;;;;;1.15;0.40;;;11.40;99.10;;;;;;5043811;28;20032;-70
2023/04/26 12:04:00;;;;;;;2.15;0.50;;;11.30;98.80;;;;;;5043070;28;20447;-69
2023/04/26 12:06:41;;;;;;;4.95;0.47;;;11.30;99.40;;;;;;5044810;28;20044;-70
2023/04/26 12:09:10;;;;;;;3.33;0.60;;;11.30;99.30;;;;;;5023807;28;20492;-72
2023/04/26 12:12:00;;;;;;;2.72;0.77;;;11.50;99.50;;;;;;5030023;28;20037;-69
2023/04/26 12:14:33;;;;;;;0.77;0.47;;;11.50;99.30;;;;;;5042962;28;20055;-68
2023/04/26 12:17:02;;;;;;;2.90;0.70;;;11.80;99.80;;;;;;5041848;28;20045;-70
2023/04/26 12:19:38;;;;;;;1.33;0.50;;;11.90;98.00;;;;;;5043440;28;20029;-69
2023/04/26 12:22:06;;;;;;;0.98;0.28;;;11.90;97.70;;;;;;5043682;28;20029;-68
2023/04/26 12:24:34;;;;;;;1.42;0.70;;;11.80;96.60;;;;;;5025230;28;20037;-69
2023/04/26 12:27:01;;;;;;;1.77;0.43;;;11.80;97.00;;;;;;5021305;28;20041;-70
2023/04/26 12:29:29;;;;;;;4.63;0.50;;;11.80;97.30;;;;;;5044408;28;20057;-69
2023/04/26 12:31:58;;;;;;;0.50;0.30;;;11.90;98.00;;;;;;5044638;28;20036;-70
2023/04/26 12:34:27;;;;;;;0.90;0.40;;;11.90;98.10;;;;;;5043739;28;20051;-70
2023/04/26 12:36:52;;;;;;;1.80;0.45;;;12.00;98.30;;;;;;5029535;28;20459;-69
2023/04/26 12:39:18;;;;;;;5.43;0.52;;;12.10;98.70;;;;;;5026163;28;20116;-70
2023/04/26 12:41:45;;;;;;;1.48;0.50;;;12.10;98.30;;;;;;5029542;28;20032;-70
2023/04/26 12:44:11;;;;;;;5.32;0.77;;;12.00;98.20;;;;;;5044647;28;20400;-70
2023/04/26 12:46:37;;;;;;;1.95;0.73;;;11.90;97.20;;;;;;5045899;28;20037;-70
2023/04/26 12:49:03;;;;;;;4.25;0.40;;;11.90;97.30;;;;;;5043528;28;20037;-69
2023/04/26 12:51:32;;;;;;;6.53;0.60;;;11.80;97.50;;;;;;5044896;28;20120;-69
2023/04/26 12:53:58;;;;;;;3.33;0.43;;;11.90;98.10;;;;;;5044383;28;20039;-69
2023/04/26 12:56:24;;;;;;;3.10;1.15;;;11.90;98.00;;;;;;5024378;28;20041;-70
2023/04/26 12:58:49;;;;;;;1.83;0.40;;;12.20;98.00;;;;;;5045114;28;20130;-71